Time;durP1;ratioP1;P1;durP2;ratioP2;P2;SDS_P1;SDS_P2;PMS_P1;PMS_P2;Temp;Humidity;BMP_temperature;BMP_pressure;BME280_temperature;BME280_humidity;BME280_pressure;Samples;Min_cycle;Max_cycle;Signal;HPM_P1;HPM_P2
2021/03/02 00:00:41;;;;;;;;;;;-0.40;99.90;;;;;;5013314;28;20393;-73
2021/03/02 00:03:07;;;;;;;;;;;-0.40;99.90;;;;;;5013598;28;19926;-72
2021/03/02 00:05:35;;;;;;;;;;;-0.50;99.90;;;;;;5013130;28;20410;-73
2021/03/02 00:08:01;;;;;;;;;;;-0.60;99.90;;;;;;4998348;28;19926;-72
2021/03/02 00:10:27;;;;;;;;;;;-0.60;99.90;;;;;;4993768;28;19933;-72
2021/03/02 00:12:54;;;;;;;;;;;-0.70;99.90;;;;;;4993823;28;20420;-72
2021/03/02 00:15:34;;;;;;;;;;;-0.70;99.90;;;;;;5000360;28;19948;-72
2021/03/02 00:18:01;;;;;;;;;;;-0.80;99.90;;;;;;5012851;28;20381;-72
2021/03/02 00:20:27;;;;;;;;;;;-0.70;99.90;;;;;;5013260;28;20401;-72
2021/03/02 00:22:58;;;;;;;;;;;-0.80;99.90;;;;;;5012846;28;19930;-72
2021/03/02 00:25:26;;;;;;;;;;;-0.80;99.90;;;;;;5004080;28;19942;-72
2021/03/02 00:27:54;;;;;;;;;;;-0.80;99.90;;;;;;4993508;28;19926;-72
2021/03/02 00:30:20;;;;;;;;;;;-0.80;99.90;;;;;;4993841;28;19949;-72
2021/03/02 00:32:47;;;;;;;;;;;-0.80;99.90;;;;;;4993548;28;19930;-72
2021/03/02 00:35:14;;;;;;;;;;;-0.80;99.90;;;;;;4993563;28;19933;-72
2021/03/02 00:37:40;;;;;;;;;;;-0.80;99.90;;;;;;4992921;28;19933;-72
2021/03/02 00:40:07;;;;;;;;;;;-0.80;99.90;;;;;;4993390;28;20004;-72
2021/03/02 00:42:33;;;;;;;;;;;-0.80;99.90;;;;;;4993678;28;19926;-72
2021/03/02 00:45:00;;;;;;;;;;;-0.80;99.90;;;;;;4999260;28;20428;-72
2021/03/02 00:47:25;;;;;;;;;;;-0.90;99.90;;;;;;5012914;28;20305;-72
2021/03/02 00:49:51;;;;;;;;;;;-0.90;99.90;;;;;;5013088;28;19932;-72
2021/03/02 00:52:17;;;;;;;;;;;-0.90;99.90;;;;;;5012960;28;19930;-72
2021/03/02 00:54:43;;;;;;;;;;;-1.00;99.90;;;;;;4995829;28;19926;-72
2021/03/02 00:57:09;;;;;;;;;;;-1.00;99.90;;;;;;4993037;28;19933;-72
2021/03/02 00:59:35;;;;;;;;;;;-1.00;99.90;;;;;;4993593;28;19937;-72
2021/03/02 01:02:02;;;;;;;;;;;-1.00;99.90;;;;;;4993373;28;19929;-72
2021/03/02 01:04:28;;;;;;;;;;;-1.00;99.90;;;;;;4993209;28;19926;-73
2021/03/02 01:06:54;;;;;;;;;;;-1.00;99.90;;;;;;4992848;28;19925;-73
2021/03/02 01:09:20;;;;;;;;;;;-1.00;99.90;;;;;;4993363;28;20365;-72
2021/03/02 01:11:47;;;;;;;;;;;-1.00;99.90;;;;;;4993288;28;19941;-72
2021/03/02 01:14:13;;;;;;;;;;;-1.00;99.90;;;;;;4993497;28;19926;-72
2021/03/02 01:16:39;;;;;;;;;;;-1.00;99.90;;;;;;4995181;28;19980;-72
2021/03/02 01:19:06;;;;;;;;;;;-1.00;99.90;;;;;;4996613;28;19930;-72
2021/03/02 01:21:32;;;;;;;;;;;-1.00;99.90;;;;;;4997626;28;19926;-72
2021/03/02 01:26:38;;;;;;;;;;;-1.10;99.90;;;;;;4996078;28;19933;-72
2021/03/02 01:29:04;;;;;;;;;;;-1.10;99.90;;;;;;4996711;28;19941;-72
2021/03/02 01:31:30;;;;;;;;;;;-1.10;99.90;;;;;;4996862;28;20483;-72
2021/03/02 01:33:56;;;;;;;;;;;-1.20;99.90;;;;;;4996675;28;19925;-72
2021/03/02 01:36:34;;;;;;;;;;;-1.20;99.90;;;;;;4996699;28;19926;-73
2021/03/02 01:39:00;;;;;;;;;;;-1.30;99.90;;;;;;4996640;28;19926;-73
2021/03/02 01:41:27;;;;;;;;;;;-1.20;99.90;;;;;;4996486;28;19937;-72
2021/03/02 01:43:53;;;;;;;;;;;-1.20;99.90;;;;;;4996507;28;19929;-72
2021/03/02 01:46:19;;;;;;;;;;;-1.20;99.90;;;;;;4996230;28;19932;-72
2021/03/02 01:48:45;;;;;;;;;;;-1.20;99.90;;;;;;5004509;28;19925;-72
2021/03/02 01:51:11;;;;;;;;;;;-1.30;99.90;;;;;;5016244;28;19952;-72
2021/03/02 01:53:38;;;;;;;;;;;-1.30;99.90;;;;;;5015422;28;19925;-72
2021/03/02 01:56:04;;;;;;;;;;;-1.30;99.90;;;;;;5015643;28;19999;-71
2021/03/02 01:58:30;;;;;;;;;;;-1.40;99.90;;;;;;5015788;28;19988;-72
2021/03/02 02:00:57;;;;;;;;;;;-1.40;99.90;;;;;;5015754;28;19925;-71
2021/03/02 02:03:28;;;;;;;;;;;-1.50;99.90;;;;;;5015836;28;19925;-72
2021/03/02 02:05:58;;;;;;;;;;;-1.40;99.90;;;;;;5015422;28;20419;-72
2021/03/02 02:08:29;;;;;;;;;;;-1.40;99.90;;;;;;5008040;28;19933;-72
2021/03/02 02:10:58;;;;;;;;;;;-1.40;99.90;;;;;;4995892;28;19957;-71
2021/03/02 02:13:27;;;;;;;;;;;-1.40;99.90;;;;;;4995954;28;19926;-72
2021/03/02 02:15:55;;;;;;;;;;;-1.50;99.90;;;;;;5010440;28;20313;-72
2021/03/02 02:18:23;;;;;;;;;;;-1.40;99.90;;;;;;5015136;28;20433;-72
2021/03/02 02:20:52;;;;;;;;;;;-1.50;99.90;;;;;;5015479;28;19925;-72
2021/03/02 02:23:26;;;;;;;;;;;-1.40;99.90;;;;;;5015286;28;20270;-72
2021/03/02 02:25:56;;;;;;;;;;;-1.40;99.90;;;;;;5014933;28;19925;-73
2021/03/02 02:28:24;;;;;;;;;;;-1.50;99.90;;;;;;4996462;28;19972;-72
2021/03/02 02:30:54;;;;;;;;;;;-1.50;99.90;;;;;;4995729;28;19926;-73
2021/03/02 02:33:21;;;;;;;;;;;-1.50;99.90;;;;;;4996045;28;19926;-72
2021/03/02 02:35:49;;;;;;;;;;;;;;;;;;5010053;28;19975;-73
2021/03/02 02:38:15;;;;;;;;;;;-1.50;99.90;;;;;;5014995;28;19926;-73
2021/03/02 02:40:42;;;;;;;;;;;-1.50;99.90;;;;;;5015182;28;20431;-73
2021/03/02 02:43:08;;;;;;;;;;;-1.50;99.90;;;;;;5007568;28;19980;-73
2021/03/02 02:45:35;;;;;;;;;;;-1.50;99.90;;;;;;4995181;28;19933;-72
2021/03/02 02:48:02;;;;;;;;;;;-1.50;99.90;;;;;;4995395;28;19933;-72
2021/03/02 02:50:28;;;;;;;;;;;-1.60;99.90;;;;;;4995347;28;20004;-73
2021/03/02 02:52:55;;;;;;;;;;;-1.60;99.90;;;;;;4995225;28;20033;-73
2021/03/02 02:55:25;;;;;;;;;;;-1.60;99.90;;;;;;4995160;28;19930;-73
2021/03/02 02:57:52;;;;;;;;;;;-1.70;99.90;;;;;;4994949;28;19937;-73
2021/03/02 03:00:19;;;;;;;;;;;-1.70;99.90;;;;;;4993694;28;19933;-72
2021/03/02 03:02:48;;;;;;;;;;;-1.80;99.90;;;;;;4995145;28;19926;-73
2021/03/02 03:05:17;;;;;;;;;;;-1.80;99.90;;;;;;4994881;28;19925;-72
2021/03/02 03:07:46;;;;;;;;;;;-1.90;99.90;;;;;;4994517;28;19933;-72
2021/03/02 03:10:13;;;;;;;;;;;-1.90;99.90;;;;;;4995531;28;20356;-73
2021/03/02 03:12:40;;;;;;;;;;;-2.00;99.90;;;;;;4995064;28;19948;-73
2021/03/02 03:15:07;;;;;;;;;;;-2.00;99.90;;;;;;4994883;28;19934;-73
2021/03/02 03:17:36;;;;;;;;;;;-1.90;99.90;;;;;;4994283;28;19953;-73
2021/03/02 03:20:04;;;;;;;;;;;-1.90;99.90;;;;;;4995624;28;19949;-73
2021/03/02 03:22:31;;;;;;;;;;;-1.90;99.90;;;;;;4994911;28;19926;-73
2021/03/02 03:24:57;;;;;;;;;;;-1.90;99.90;;;;;;4995046;28;19926;-72
2021/03/02 03:27:24;;;;;;;;;;;-1.90;99.90;;;;;;4994378;28;19948;-72
2021/03/02 03:29:50;;;;;;;;;;;-2.00;99.90;;;;;;4994666;28;19925;-72
2021/03/02 03:32:17;;;;;;;;;;;-1.90;99.90;;;;;;4994582;28;19932;-72
2021/03/02 03:34:44;;;;;;;;;;;-1.90;99.90;;;;;;5003032;28;19972;-72
2021/03/02 03:37:11;;;;;;;;;;;-1.90;99.90;;;;;;5013879;28;19925;-73
2021/03/02 03:39:37;;;;;;;;;;;-1.90;99.90;;;;;;5013573;28;20431;-72
2021/03/02 03:42:03;;;;;;;;;;;-1.90;99.90;;;;;;5014257;28;19925;-72
2021/03/02 03:44:29;;;;;;;;;;;-2.00;99.90;;;;;;5013634;28;20301;-73
2021/03/02 03:46:56;;;;;;;;;;;-2.00;99.90;;;;;;5013628;28;19925;-72
2021/03/02 03:49:22;;;;;;;;;;;-2.00;99.90;;;;;;4997160;28;19926;-71
2021/03/02 03:51:48;;;;;;;;;;;-2.00;99.90;;;;;;4994374;28;19926;-71
2021/03/02 03:54:16;;;;;;;;;;;-2.00;99.90;;;;;;4993992;28;20393;-72
2021/03/02 03:56:42;;;;;;;;;;;-2.00;99.90;;;;;;4993865;28;19926;-71
2021/03/02 03:59:09;;;;;;;;;;;-2.00;99.90;;;;;;4993665;28;19933;-72
2021/03/02 04:01:36;;;;;;;;;;;-2.10;99.90;;;;;;4994254;28;19926;-72
2021/03/02 04:04:02;;;;;;;;;;;-2.10;99.90;;;;;;4994117;28;20002;-72
2021/03/02 04:06:28;;;;;;;;;;;-2.10;99.90;;;;;;4993929;28;19933;-71
2021/03/02 04:11:37;;;;;;;;;;;-2.10;99.90;;;;;;4993861;28;19933;-72
2021/03/02 04:14:04;;;;;;;;;;;-2.10;99.90;;;;;;4994040;28;19980;-71
2021/03/02 04:16:32;;;;;;;;;;;-2.10;99.90;;;;;;5000460;28;19926;-72
2021/03/02 04:18:58;;;;;;;;;;;-2.10;99.90;;;;;;5013331;28;19973;-72
2021/03/02 04:21:24;;;;;;;;;;;-2.10;99.90;;;;;;5013504;28;19932;-72
2021/03/02 04:24:01;;;;;;;;;;;-2.10;99.90;;;;;;5013026;28;19925;-72
2021/03/02 04:26:27;;;;;;;;;;;-2.10;99.90;;;;;;4994068;28;19948;-72
2021/03/02 04:28:54;;;;;;;;;;;-2.00;99.90;;;;;;5013072;28;19925;-73
2021/03/02 04:31:20;;;;;;;;;;;-2.00;99.90;;;;;;5004651;28;19926;-72
2021/03/02 04:33:46;;;;;;;;;;;-2.00;99.90;;;;;;4993818;28;19937;-71
2021/03/02 04:36:12;;;;;;;;;;;-2.00;99.90;;;;;;5000505;28;20392;-71
2021/03/02 04:38:38;;;;;;;;;;;-2.10;99.90;;;;;;5012637;28;19971;-72
2021/03/02 04:41:04;;;;;;;;;;;-2.00;99.90;;;;;;5013238;28;20299;-72
2021/03/02 04:43:30;;;;;;;;;;;-2.00;99.90;;;;;;5012849;28;19930;-73
2021/03/02 04:45:56;;;;;;;;;;;-2.10;99.90;;;;;;4995591;28;19936;-73
2021/03/02 04:48:22;;;;;;;;;;;-2.10;99.90;;;;;;4993353;28;19925;-72
2021/03/02 04:50:48;;;;;;;;;;;-2.10;99.90;;;;;;4994284;28;19926;-73
2021/03/02 04:53:14;;;;;;;;;;;-2.10;99.90;;;;;;4997500;28;19929;-73
2021/03/02 04:55:40;;;;;;;;;;;-2.20;99.90;;;;;;4997421;28;20289;-72
2021/03/02 04:58:06;;;;;;;;;;;-2.20;99.90;;;;;;4996924;28;19937;-73
2021/03/02 05:00:32;;;;;;;;;;;-2.20;99.90;;;;;;4997437;28;19980;-72
2021/03/02 05:02:59;;;;;;;;;;;-2.20;99.90;;;;;;4997461;28;20000;-73
2021/03/02 05:05:25;;;;;;;;;;;-2.30;99.90;;;;;;4997245;28;19926;-72
2021/03/02 05:07:51;;;;;;;;;;;-2.30;99.90;;;;;;4997172;28;19948;-73
2021/03/02 05:10:17;;;;;;;;;;;-2.30;99.90;;;;;;4997163;28;20345;-72
2021/03/02 05:12:43;;;;;;;;;;;-2.30;99.90;;;;;;5002239;28;19930;-72
2021/03/02 05:15:10;;;;;;;;;;;-2.40;99.90;;;;;;5016830;28;19948;-72
2021/03/02 05:17:35;;;;;;;;;;;-2.40;99.90;;;;;;5016288;28;19972;-72
2021/03/02 05:20:03;;;;;;;;;;;-2.40;99.90;;;;;;5016969;28;20472;-72
2021/03/02 05:22:29;;;;;;;;;;;-2.40;99.90;;;;;;5016105;28;19925;-73
2021/03/02 05:24:55;;;;;;;;;;;-2.40;99.90;;;;;;5016452;28;19929;-75
2021/03/02 05:27:21;;;;;;;;;;;-2.40;99.90;;;;;;5015305;28;19933;-74
2021/03/02 05:29:47;;;;;;;;;;;-2.40;99.90;;;;;;5017187;28;19925;-81
2021/03/02 05:32:13;;;;;;;;;;;-1.80;99.90;;;;;;5017121;28;19926;-76
2021/03/02 05:34:39;;;;;;;;;;;-2.00;99.90;;;;;;5016595;28;19926;-76
2021/03/02 05:37:05;;;;;;;;;;;-2.10;99.90;;;;;;5003522;28;19926;-76
2021/03/02 05:39:31;;;;;;;;;;;-2.20;99.90;;;;;;4996830;28;19938;-77
2021/03/02 05:41:57;;;;;;;;;;;-2.20;99.90;;;;;;5011299;28;19925;-77
2021/03/02 05:44:24;;;;;;;;;;;-2.30;99.90;;;;;;5017574;28;19925;-77
2021/03/02 05:46:50;;;;;;;;;;;-2.30;99.90;;;;;;5015966;28;20439;-76
2021/03/02 05:49:16;;;;;;;;;;;-2.30;99.90;;;;;;5015133;28;20011;-76
2021/03/02 05:51:43;;;;;;;;;;;-2.30;99.90;;;;;;5015519;28;19930;-77
2021/03/02 05:54:10;;;;;;;;;;;-2.40;99.90;;;;;;5015621;28;20016;-76
2021/03/02 05:56:37;;;;;;;;;;;-2.40;99.90;;;;;;5015352;28;19930;-74
2021/03/02 05:59:03;;;;;;;;;;;-2.40;99.90;;;;;;5015967;28;19926;-74
2021/03/02 06:01:29;;;;;;;;;;;-2.30;99.90;;;;;;5017410;28;19932;-75
2021/03/02 06:03:55;;;;;;;;;;;-2.40;99.90;;;;;;5003502;28;19930;-76
2021/03/02 06:06:23;;;;;;;;;;;-2.40;99.90;;;;;;4996086;28;19926;-75
2021/03/02 06:08:49;;;;;;;;;;;-2.10;99.90;;;;;;4996004;28;20277;-75
2021/03/02 06:11:23;;;;;;;;;;;-2.00;99.90;;;;;;5007496;28;19926;-76
2021/03/02 06:13:49;;;;;;;;;;;-1.60;99.90;;;;;;5016006;28;20003;-75
2021/03/02 06:16:15;;;;;;;;;;;-0.20;99.90;;;;;;5015043;28;19925;-75
2021/03/02 06:18:46;;;;;;;;;;;-1.00;99.90;;;;;;5015770;28;19925;-77
2021/03/02 06:21:12;;;;;;;;;;;-0.60;99.90;;;;;;5015747;28;19926;-77
2021/03/02 06:23:45;;;;;;;;;;;-0.20;99.90;;;;;;5017239;28;19925;-78
2021/03/02 06:26:15;;;;;;;;;;;0.10;99.90;;;;;;5000449;28;19933;-77
2021/03/02 06:28:42;;;;;;;;;;;0.40;99.90;;;;;;5000171;28;19933;-73
2021/03/02 06:31:28;;;;;;;;;;;0.80;99.90;;;;;;4995881;28;19925;-74
2021/03/02 06:34:03;;;;;;;;;;;1.40;99.90;;;;;;4996012;28;20297;-78
2021/03/02 06:36:29;;;;;;;;;;;2.10;99.90;;;;;;4996057;28;19925;-75
2021/03/02 06:38:55;;;;;;;;;;;2.90;99.90;;;;;;5001136;28;19933;-74
2021/03/02 06:41:21;;;;;;;;;;;3.40;99.90;;;;;;5015518;28;19926;-75
2021/03/02 06:43:47;;;;;;;;;;;3.90;99.90;;;;;;5015211;28;19948;-74
2021/03/02 06:46:13;;;;;;;;;;;4.30;99.90;;;;;;5014672;28;20291;-74
2021/03/02 06:48:52;;;;;;;;;;;4.80;99.90;;;;;;5014835;28;19968;-74
2021/03/02 06:51:25;;;;;;;;;;;5.30;99.90;;;;;;5015187;28;19926;-75
2021/03/02 06:54:05;;;;;;;;;;;5.80;99.90;;;;;;5014740;28;19933;-75
2021/03/02 06:56:31;;;;;;;;;;;6.30;99.90;;;;;;5017666;28;19925;-78
2021/03/02 06:59:10;;;;;;;;;;;6.60;99.90;;;;;;5017750;28;19932;-78
2021/03/02 07:01:36;;;;;;;;;;;7.00;99.90;;;;;;5017159;28;19929;-79
2021/03/02 07:04:09;;;;;;;;;;;7.10;99.90;;;;;;5015958;28;19925;-75
2021/03/02 07:06:37;;;;;;;;;;;7.40;99.90;;;;;;5014385;28;19926;-74
2021/03/02 07:09:03;;;;;;;;;;;7.50;99.90;;;;;;5013897;28;20033;-73
2021/03/02 07:11:29;;;;;;;;;;;7.70;99.60;;;;;;5014214;28;19925;-71
2021/03/02 07:13:55;;;;;;;;;;;8.00;97.90;;;;;;5013580;28;19925;-71
2021/03/02 07:16:21;;;;;;;;;;;8.10;97.00;;;;;;5014069;28;19926;-71
2021/03/02 07:18:48;;;;;;;;;;;8.00;96.90;;;;;;5014037;28;19983;-69
2021/03/02 07:21:15;;;;;;;;;;;8.30;96.60;;;;;;4994656;28;20305;-70
2021/03/02 07:23:42;;;;;;;;;;;8.30;96.00;;;;;;4994413;28;20377;-71
2021/03/02 07:26:11;;;;;;;;;;;8.10;96.20;;;;;;4994531;28;19980;-71
2021/03/02 07:28:37;;;;;;;;;;;7.90;96.20;;;;;;4994417;28;19925;-71
2021/03/02 07:31:03;;;;;;;;;;;7.60;97.10;;;;;;4994817;28;19925;-70
2021/03/02 07:33:29;;;;;;;;;;;7.10;98.20;;;;;;4994479;28;20364;-71
2021/03/02 07:35:56;;;;;;;;;;;6.60;99.90;;;;;;5002861;28;20431;-74
2021/03/02 07:38:25;;;;;;;;;;;6.40;99.90;;;;;;5013566;28;20377;-74
2021/03/02 07:40:53;;;;;;;;;;;6.50;99.90;;;;;;5014339;28;19964;-74
2021/03/02 07:43:22;;;;;;;;;;;6.40;99.90;;;;;;5012627;28;19925;-74
2021/03/02 07:45:48;;;;;;;;;;;6.40;99.90;;;;;;4994177;28;20246;-74
2021/03/02 07:48:23;;;;;;;;;;;6.50;99.90;;;;;;4993949;28;19933;-73
2021/03/02 07:51:09;;;;;;;;;;;6.60;99.90;;;;;;4996241;28;19930;-79
2021/03/02 07:53:35;;;;;;;;;;;6.80;99.90;;;;;;4996596;28;19925;-78
2021/03/02 07:56:21;;;;;;;;;;;7.10;99.90;;;;;;4995932;28;19984;-78
2021/03/02 07:59:12;;;;;;;;;;;7.40;99.90;;;;;;4996236;28;19926;-77
2021/03/02 08:01:39;;;;;;;;;;;7.50;99.90;;;;;;4995790;28;19926;-77
2021/03/02 08:04:25;;;;;;;;;;;7.90;99.90;;;;;;5004700;28;19933;-77
2021/03/02 08:06:51;;;;;;;;;;;8.40;99.90;;;;;;5014780;28;19932;-76
2021/03/02 08:09:27;;;;;;;;;;;9.00;98.80;;;;;;5013889;28;20032;-75
2021/03/02 08:11:54;;;;;;;;;;;9.30;97.50;;;;;;5013294;28;19933;-75
2021/03/02 08:14:29;;;;;;;;;;;9.60;96.40;;;;;;5013863;28;19929;-78
2021/03/02 08:16:57;;;;;;;;;;;10.00;95.30;;;;;;5013289;28;20288;-74
2021/03/02 08:19:33;;;;;;;;;;;10.40;95.70;;;;;;5012689;28;20297;-75
2021/03/02 08:21:59;;;;;;;;;;;11.10;93.10;;;;;;5013345;28;19925;-74
2021/03/02 08:24:40;;;;;;;;;;;12.20;90.20;;;;;;5012954;28;19933;-75
2021/03/02 08:27:05;;;;;;;;;;;13.30;83.20;;;;;;5012228;28;19926;-75
2021/03/02 08:29:31;;;;;;;;;;;14.20;77.70;;;;;;5013190;28;19926;-75
2021/03/02 08:31:58;;;;;;;;;;;14.90;73.00;;;;;;5013313;28;20399;-75
2021/03/02 08:34:24;;;;;;;;;;;15.50;69.00;;;;;;5012891;28;19948;-75
2021/03/02 08:36:51;;;;;;;;;;;15.90;66.70;;;;;;5012526;28;20392;-74
2021/03/02 08:39:20;;;;;;;;;;;16.30;64.30;;;;;;5012834;28;19929;-75
2021/03/02 08:41:47;;;;;;;;;;;16.80;62.20;;;;;;5013098;28;19933;-75
2021/03/02 08:44:17;;;;;;;;;;;17.20;59.70;;;;;;5012967;28;19980;-75
2021/03/02 08:46:43;;;;;;;;;;;17.50;58.10;;;;;;5012788;28;19925;-75
2021/03/02 08:49:10;;;;;;;;;;;17.60;57.40;;;;;;5012660;28;20377;-75
2021/03/02 08:51:37;;;;;;;;;;;18.10;56.60;;;;;;5013270;28;20289;-75
2021/03/02 08:54:03;;;;;;;;;;;18.50;56.10;;;;;;5012810;28;20388;-75
2021/03/02 08:56:31;;;;;;;;;;;18.60;54.60;;;;;;5012658;28;19926;-75
2021/03/02 08:59:03;;;;;;;;;;;18.80;54.50;;;;;;5012873;28;19929;-75
2021/03/02 09:01:33;;;;;;;;;;;18.60;53.70;;;;;;5013018;28;20002;-75
2021/03/02 09:04:07;;;;;;;;;;;18.50;54.90;;;;;;5012669;28;19983;-75
2021/03/02 09:06:34;;;;;;;;;;;18.40;54.70;;;;;;5012764;28;19932;-75
2021/03/02 09:09:01;;;;;;;;;;;18.60;54.20;;;;;;5012680;28;19925;-75
2021/03/02 09:11:28;;;;;;;;;;;18.70;53.60;;;;;;5012766;28;19929;-75
2021/03/02 09:13:54;;;;;;;;;;;18.80;53.40;;;;;;5013002;28;19926;-75
2021/03/02 09:16:22;;;;;;;;;;;19.10;53.20;;;;;;5012199;28;20048;-75
2021/03/02 09:18:56;;;;;;;;;;;19.20;53.10;;;;;;5012699;28;19926;-75
2021/03/02 09:21:23;;;;;;;;;;;19.30;52.70;;;;;;5012877;28;19925;-75
2021/03/02 09:23:51;;;;;;;;;;;19.40;52.50;;;;;;5012138;28;21214;-75
2021/03/02 09:26:18;;;;;;;;;;;19.80;52.00;;;;;;5012273;28;19960;-75
2021/03/02 09:28:45;;;;;;;;;;;20.10;51.10;;;;;;5012241;28;19933;-75
2021/03/02 09:31:10;;;;;;;;;;;20.40;51.00;;;;;;5012770;28;19926;-75
2021/03/02 09:33:37;;;;;;;;;;;20.80;50.50;;;;;;5012657;28;20361;-75
2021/03/02 09:36:04;;;;;;;;;;;21.10;49.70;;;;;;5012338;28;19988;-75
2021/03/02 09:38:30;;;;;;;;;;;21.30;49.20;;;;;;5015989;28;19934;-75
2021/03/02 09:40:56;;;;;;;;;;;21.10;49.40;;;;;;5016189;28;19925;-75
2021/03/02 09:43:33;;;;;;;;;;;21.30;49.30;;;;;;5016086;28;19926;-75
2021/03/02 09:45:59;;;;;;;;;;;21.30;48.90;;;;;;5015794;28;19925;-75
2021/03/02 09:48:25;;;;;;;;;;;21.50;48.30;;;;;;5015928;28;20242;-75
2021/03/02 09:50:51;;;;;;;;;;;21.60;48.20;;;;;;5016094;28;19929;-75
2021/03/02 09:53:17;;;;;;;;;;;21.90;48.70;;;;;;5016223;28;19929;-75
2021/03/02 09:55:45;;;;;;;;;;;22.10;47.60;;;;;;5015672;28;19932;-75
2021/03/02 09:58:15;;;;;;;;;;;22.20;47.40;;;;;;5015393;28;20572;-74
2021/03/02 10:00:47;;;;;;;;;;;22.40;47.60;;;;;;5015683;28;20320;-74
2021/03/02 10:03:13;;;;;;;;;;;22.30;46.90;;;;;;5015783;28;20028;-74
2021/03/02 10:05:41;;;;;;;;;;;22.30;46.50;;;;;;5015563;28;19926;-74
2021/03/02 10:08:26;;;;;;;;;;;22.50;46.50;;;;;;5015233;28;19936;-74
2021/03/02 10:10:53;;;;;;;;;;;22.30;46.10;;;;;;5015711;28;19980;-74
2021/03/02 10:13:24;;;;;;;;;;;22.40;46.10;;;;;;5015720;28;19932;-74
2021/03/02 10:15:50;;;;;;;;;;;22.60;46.10;;;;;;5015544;28;20340;-74
2021/03/02 10:18:23;;;;;;;;;;;22.80;45.70;;;;;;5015150;28;19925;-75
2021/03/02 10:21:02;;;;;;;;;;;22.80;45.90;;;;;;5015642;28;19932;-75
2021/03/02 10:23:28;;;;;;;;;;;22.90;45.40;;;;;;5015268;28;19932;-75
2021/03/02 10:25:55;;;;;;;;;;;23.20;44.80;;;;;;5015364;28;19926;-75
2021/03/02 10:28:29;;;;;;;;;;;23.20;44.70;;;;;;5015286;28;19961;-75
2021/03/02 10:30:55;;;;;;;;;;;22.90;44.60;;;;;;5015506;28;19926;-75
2021/03/02 10:33:20;;;;;;;;;;;23.00;44.50;;;;;;5015118;28;19926;-75
2021/03/02 10:35:46;;;;;;;;;;;23.20;44.30;;;;;;5014864;28;19932;-75
2021/03/02 10:38:12;;;;;;;;;;;23.20;44.80;;;;;;5014985;28;19925;-75
2021/03/02 10:40:38;;;;;;;;;;;23.20;44.40;;;;;;5015304;28;19926;-75
2021/03/02 10:43:04;;;;;;;;;;;23.40;43.80;;;;;;5015059;28;19932;-75
2021/03/02 10:45:31;;;;;;;;;;;23.60;43.50;;;;;;5014802;28;19992;-75
2021/03/02 10:47:57;;;;;;;;;;;23.90;43.80;;;;;;5013862;28;19936;-75
2021/03/02 10:50:23;;;;;;;;;;;23.50;43.20;;;;;;5014677;28;19926;-74
2021/03/02 10:52:49;;;;;;;;;;;23.70;43.10;;;;;;5015033;28;19979;-75
2021/03/02 10:55:15;;;;;;;;;;;24.30;42.60;;;;;;5014712;28;19952;-75
2021/03/02 10:57:41;;;;;;;;;;;24.60;42.10;;;;;;5014214;28;19930;-75
2021/03/02 11:00:07;;;;;;;;;;;24.80;41.80;;;;;;5014447;28;20304;-75
2021/03/02 11:02:34;;;;;;;;;;;24.90;41.10;;;;;;5013921;28;20277;-75
2021/03/02 11:05:00;;;;;;;;;;;24.20;41.90;;;;;;5014571;28;19932;-75
2021/03/02 11:07:26;;;;;;;;;;;24.00;42.80;;;;;;5014273;28;19992;-75
2021/03/02 11:09:52;;;;;;;;;;;24.20;42.60;;;;;;5014633;28;19925;-74
2021/03/02 11:12:18;;;;;;;;;;;24.40;42.20;;;;;;5014629;28;20396;-75
2021/03/02 11:14:44;;;;;;;;;;;24.40;42.50;;;;;;5014384;28;19926;-75
2021/03/02 11:17:10;;;;;;;;;;;24.70;41.90;;;;;;5013955;28;20411;-75
2021/03/02 11:19:37;;;;;;;;;;;25.10;41.00;;;;;;5014170;28;19933;-75
2021/03/02 11:22:03;;;;;;;;;;;25.50;41.10;;;;;;5014481;28;19925;-74
2021/03/02 11:24:41;;;;;;;;;;;25.40;40.60;;;;;;5014197;28;19932;-75
2021/03/02 11:27:07;;;;;;;;;;;25.60;40.60;;;;;;5014172;28;20313;-74
2021/03/02 11:29:35;;;;;;;;;;;25.90;39.80;;;;;;5013911;28;19925;-74
2021/03/02 11:32:02;;;;;;;;;;;25.90;40.30;;;;;;5014197;28;20392;-74
2021/03/02 11:34:28;;;;;;;;;;;26.00;40.60;;;;;;5014172;28;19960;-75
2021/03/02 11:36:55;;;;;;;;;;;26.20;39.40;;;;;;5013795;28;19925;-74
2021/03/02 11:39:21;;;;;;;;;;;26.50;39.00;;;;;;5014174;28;19933;-74
2021/03/02 11:41:47;;;;;;;;;;;26.70;38.60;;;;;;5016614;28;19925;-74
2021/03/02 11:44:13;;;;;;;;;;;26.60;38.70;;;;;;5019275;28;19972;-75
2021/03/02 11:46:39;;;;;;;;;;;26.50;38.80;;;;;;5013627;28;19926;-75
2021/03/02 11:49:05;;;;;;;;;;;26.50;38.90;;;;;;5013845;28;20380;-75
2021/03/02 11:51:31;;;;;;;;;;;26.60;38.70;;;;;;5013802;28;19926;-75
2021/03/02 11:53:57;;;;;;;;;;;26.80;38.60;;;;;;5013944;28;19979;-75
2021/03/02 11:56:23;;;;;;;;;;;26.60;38.80;;;;;;5013677;28;20350;-75
2021/03/02 11:58:50;;;;;;;;;;;26.60;38.80;;;;;;5013303;28;19942;-75
2021/03/02 12:01:15;;;;;;;;;;;26.80;38.50;;;;;;5013517;28;19926;-75
2021/03/02 12:03:41;;;;;;;;;;;26.70;38.50;;;;;;5013716;28;20274;-75
2021/03/02 12:06:07;;;;;;;;;;;26.60;38.30;;;;;;5013228;28;19935;-76
2021/03/02 12:08:35;;;;;;;;;;;26.80;38.40;;;;;;5013302;28;19979;-76
2021/03/02 12:11:01;;;;;;;;;;;27.00;37.90;;;;;;5013537;28;19926;-76
2021/03/02 12:13:27;;;;;;;;;;;27.30;38.10;;;;;;5013181;28;19936;-76
2021/03/02 12:15:55;;;;;;;;;;;27.40;37.80;;;;;;5019753;28;19925;-75
2021/03/02 12:18:21;;;;;;;;;;;27.50;37.50;;;;;;5013711;28;19925;-76
2021/03/02 12:20:47;;;;;;;;;;;27.60;37.30;;;;;;5013309;28;19932;-75
2021/03/02 12:23:13;;;;;;;;;;;27.80;36.90;;;;;;5013268;28;20380;-76
2021/03/02 12:25:39;;;;;;;;;;;27.60;37.30;;;;;;5013338;28;19933;-76
2021/03/02 12:28:17;;;;;;;;;;;27.40;37.30;;;;;;5012928;28;19937;-76
2021/03/02 12:30:43;;;;;;;;;;;27.30;37.70;;;;;;5013594;28;19973;-76
2021/03/02 12:33:09;;;;;;;;;;;27.30;37.70;;;;;;5013094;28;20420;-75
2021/03/02 12:35:35;;;;;;;;;;;27.10;37.90;;;;;;5013190;28;20276;-75
2021/03/02 12:38:02;;;;;;;;;;;27.20;37.70;;;;;;5012539;28;20042;-75
2021/03/02 12:40:28;;;;;;;;;;;27.10;38.50;;;;;;5012919;28;20083;-76
2021/03/02 12:42:53;;;;;;;;;;;27.10;37.70;;;;;;5013165;28;19926;-75
2021/03/02 12:45:20;;;;;;;;;;;27.10;38.00;;;;;;5013139;28;19932;-76
2021/03/02 12:47:46;;;;;;;;;;;26.90;38.40;;;;;;5013755;28;19933;-75
2021/03/02 12:50:13;;;;;;;;;;;26.80;38.40;;;;;;5014024;28;19925;-75
2021/03/02 12:52:39;;;;;;;;;;;26.80;38.10;;;;;;5012965;28;19952;-75
2021/03/02 12:55:06;;;;;;;;;;;26.90;38.10;;;;;;5012866;28;20028;-75
2021/03/02 12:57:32;;;;;;;;;;;27.10;38.00;;;;;;5012668;28;20085;-78
2021/03/02 12:59:58;;;;;;;;;;;27.30;37.80;;;;;;5013218;28;19945;-75
2021/03/02 13:02:25;;;;;;;;;;;27.30;38.10;;;;;;5013167;28;19926;-76
2021/03/02 13:04:52;;;;;;;;;;;27.80;36.40;;;;;;5012962;28;19926;-76
2021/03/02 13:07:18;;;;;;;;;;;28.00;36.10;;;;;;5012654;28;19929;-76
2021/03/02 13:09:44;;;;;;;;;;;27.80;36.40;;;;;;5012597;28;20037;-75
2021/03/02 13:12:11;;;;;;;;;;;27.60;36.10;;;;;;5014187;28;20378;-75
2021/03/02 13:14:37;;;;;;;;;;;27.60;35.70;;;;;;5017045;28;19968;-75
2021/03/02 13:17:03;;;;;;;;;;;27.40;35.90;;;;;;5016447;28;19975;-76
2021/03/02 13:19:31;;;;;;;;;;;27.50;36.40;;;;;;5016508;28;19925;-75
2021/03/02 13:21:57;;;;;;;;;;;27.50;36.30;;;;;;5016825;28;19965;-75
2021/03/02 13:24:23;;;;;;;;;;;27.50;36.30;;;;;;5016131;28;19925;-75
2021/03/02 13:26:50;;;;;;;;;;;27.80;36.00;;;;;;5016448;28;19977;-76
2021/03/02 13:29:17;;;;;;;;;;;27.90;35.80;;;;;;5016712;28;19952;-75
2021/03/02 13:31:46;;;;;;;;;;;28.00;35.60;;;;;;5016579;28;19926;-75
2021/03/02 13:34:12;;;;;;;;;;;27.90;35.80;;;;;;5016500;28;19995;-75
2021/03/02 13:36:40;;;;;;;;;;;27.80;36.00;;;;;;5016228;28;19968;-76
2021/03/02 13:39:06;;;;;;;;;;;27.50;36.50;;;;;;5016306;28;19929;-75
2021/03/02 13:41:34;;;;;;;;;;;27.60;36.10;;;;;;5016250;28;19926;-76
2021/03/02 13:44:00;;;;;;;;;;;27.70;36.40;;;;;;5016429;28;20010;-76
2021/03/02 13:46:26;;;;;;;;;;;28.00;36.10;;;;;;5015779;28;19948;-75
2021/03/02 13:48:52;;;;;;;;;;;27.90;36.10;;;;;;5015897;28;19976;-75
2021/03/02 13:51:18;;;;;;;;;;;28.10;36.30;;;;;;5016195;28;20336;-75
2021/03/02 13:53:45;;;;;;;;;;;28.10;36.10;;;;;;5016455;28;19925;-75
2021/03/02 13:56:11;;;;;;;;;;;27.90;36.30;;;;;;5015890;28;19992;-75
2021/03/02 13:58:40;;;;;;;;;;;28.20;36.80;;;;;;5015797;28;19929;-76
2021/03/02 14:01:06;;;;;;;;;;;28.30;36.10;;;;;;5015880;28;19967;-76
2021/03/02 14:03:34;;;;;;;;;;;28.30;35.80;;;;;;5015853;28;19948;-75
2021/03/02 14:06:00;;;;;;;;;;;28.00;35.90;;;;;;5015447;28;19972;-75
2021/03/02 14:08:26;;;;;;;;;;;27.80;36.50;;;;;;5015806;28;19960;-75
2021/03/02 14:10:53;;;;;;;;;;;27.80;36.30;;;;;;5015838;28;19964;-75
2021/03/02 14:13:19;;;;;;;;;;;27.60;36.60;;;;;;5015737;28;19967;-75
2021/03/02 14:15:45;;;;;;;;;;;27.50;37.30;;;;;;5015409;28;20008;-75
2021/03/02 14:18:13;;;;;;;;;;;27.60;36.50;;;;;;5015210;28;19926;-77
2021/03/02 14:20:39;;;;;;;;;;;27.90;36.50;;;;;;5015276;28;19932;-75
2021/03/02 14:23:05;;;;;;;;;;;28.00;36.20;;;;;;5015286;28;19932;-75
2021/03/02 14:25:31;;;;;;;;;;;28.00;36.30;;;;;;5015201;28;19972;-75